Terminal Aerodrome Forecast
Issued by NWS Flagstaff, AZ

Home | Current Version | Previous Version | Text Only | Print | Product List | Glossary On
Versions: 1 2 3 4 5 6 7 8 9 10 11 12 13 14 15
000
FTUS45 KFGZ 241137
TAFFLG
TAF
KFLG 241137Z 2412/2512 00000KT P6SM SKC
     FM241700 24010G18KT P6SM FEW250
     FM242000 23016G26KT P6SM FEW100
     FM250200 24006KT P6SM SCT250=

USA.gov is the U.S. government's official web portal to all federal, state and local government web resources and services.